LGX37B LXGB-GMMI
Flight info
| Callsign | LGX37B |
|---|---|
| Flight time | 1h 5m |
| Altitude | 37000 |
| Route | TTN DCT RBT DCT CBA |
| Aircraft | B38M/M-SDE1FGHILORVWXY/HB1 |
Departure
| Time | 2026-04-24 14:38 |
|---|---|
| Airport | Gibraltar Airport (LXGB) |
Arrival
| Time | 2026-04-24 15:43 |
|---|---|
| Airport | Essaouira-Mogador Airport (GMMI) |
| Time | Latitude | Longitude | Altitude | Speed | Heading |
|---|---|---|---|---|---|
| 2026-04-24 14:05 | 36.15292 | -5.34585 | 18 ft | 0 kts | 359° |
| 2026-04-24 14:32 | 36.15274 | -5.34585 | 18 ft | 4 kts | 3° |
| 2026-04-24 14:32 | 36.15248 | -5.34586 | 18 ft | 4 kts | 338° |
| 2026-04-24 14:32 | 36.15237 | -5.34579 | 18 ft | 0 kts | 319° |
| 2026-04-24 14:34 | 36.15240 | -5.34578 | 18 ft | 0 kts | 341° |
| 2026-04-24 14:34 | 36.15243 | -5.34575 | 18 ft | 1 kts | 20° |
| 2026-04-24 14:34 | 36.15244 | -5.34570 | 20 ft | 1 kts | 63° |
| 2026-04-24 14:34 | 36.15243 | -5.34567 | 17 ft | 0 kts | 92° |
| 2026-04-24 14:35 | 36.15243 | -5.34577 | 18 ft | 3 kts | 95° |
| 2026-04-24 14:35 | 36.15244 | -5.34585 | 18 ft | 0 kts | 95° |
| 2026-04-24 14:36 | 36.15232 | -5.34534 | 17 ft | 13 kts | 96° |
| 2026-04-24 14:36 | 36.15232 | -5.34421 | 17 ft | 13 kts | 85° |
| 2026-04-24 14:36 | 36.15238 | -5.34305 | 17 ft | 14 kts | 86° |
| 2026-04-24 14:37 | 36.15188 | -5.34233 | 16 ft | 14 kts | 174° |
| 2026-04-24 14:37 | 36.15143 | -5.34310 | 15 ft | 21 kts | 271° |
| 2026-04-24 14:37 | 36.15133 | -5.34760 | 17 ft | 87 kts | 266° |
| 2026-04-24 14:37 | 36.15087 | -5.35778 | 29 ft | 146 kts | 266° |
| 2026-04-24 14:38 | 36.15018 | -5.37028 | 751 ft | 140 kts | 263° |
| 2026-04-24 14:38 | 36.14852 | -5.38242 | 1469 ft | 152 kts | 260° |
| 2026-04-24 14:38 | 36.14591 | -5.39566 | 2059 ft | 167 kts | 239° |
| 2026-04-24 14:38 | 36.13633 | -5.40413 | 2735 ft | 180 kts | 187° |
| 2026-04-24 14:39 | 36.12354 | -5.40406 | 3413 ft | 191 kts | 171° |
| 2026-04-24 14:39 | 36.10961 | -5.40516 | 3984 ft | 216 kts | 201° |
| 2026-04-24 14:39 | 36.09604 | -5.41414 | 4799 ft | 229 kts | 207° |
| 2026-04-24 14:39 | 36.08152 | -5.42383 | 5572 ft | 245 kts | 206° |
| 2026-04-24 14:40 | 36.06591 | -5.43414 | 6343 ft | 263 kts | 207° |
| 2026-04-24 14:40 | 36.04932 | -5.44520 | 7191 ft | 276 kts | 207° |
| 2026-04-24 14:40 | 36.03224 | -5.45660 | 8194 ft | 283 kts | 207° |
| 2026-04-24 14:40 | 36.01475 | -5.46824 | 9212 ft | 288 kts | 208° |
| 2026-04-24 14:41 | 35.99727 | -5.47997 | 10173 ft | 293 kts | 208° |
| 2026-04-24 14:41 | 35.97883 | -5.49237 | 10784 ft | 311 kts | 208° |
| 2026-04-24 14:41 | 35.95929 | -5.50547 | 11341 ft | 328 kts | 208° |
| 2026-04-24 14:41 | 35.93863 | -5.51928 | 11851 ft | 346 kts | 208° |
| 2026-04-24 14:42 | 35.92408 | -5.52897 | 12170 ft | 358 kts | 208° |
| 2026-04-24 14:42 | 35.89465 | -5.54858 | 13144 ft | 367 kts | 208° |
| 2026-04-24 14:42 | 35.87202 | -5.56364 | 13979 ft | 372 kts | 208° |
| 2026-04-24 14:42 | 35.84917 | -5.57885 | 14805 ft | 376 kts | 208° |
| 2026-04-24 14:43 | 35.82599 | -5.59428 | 15606 ft | 380 kts | 209° |
| 2026-04-24 14:43 | 35.80264 | -5.60980 | 16377 ft | 383 kts | 209° |
| 2026-04-24 14:43 | 35.77908 | -5.62547 | 17101 ft | 387 kts | 209° |
| 2026-04-24 14:43 | 35.75529 | -5.64126 | 17814 ft | 390 kts | 209° |
| 2026-04-24 14:44 | 35.73126 | -5.65720 | 18490 ft | 393 kts | 209° |
| 2026-04-24 14:44 | 35.70704 | -5.67326 | 19143 ft | 397 kts | 209° |
| 2026-04-24 14:44 | 35.68265 | -5.68941 | 19782 ft | 400 kts | 208° |
| 2026-04-24 14:44 | 35.65809 | -5.70564 | 20370 ft | 402 kts | 208° |
| 2026-04-24 14:45 | 35.63334 | -5.72200 | 20971 ft | 405 kts | 208° |
| 2026-04-24 14:45 | 35.60842 | -5.73849 | 21538 ft | 408 kts | 208° |
| 2026-04-24 14:45 | 35.58330 | -5.75512 | 22098 ft | 411 kts | 208° |
| 2026-04-24 14:45 | 35.55801 | -5.77182 | 22636 ft | 414 kts | 207° |
| 2026-04-24 14:46 | 35.53253 | -5.78863 | 23172 ft | 417 kts | 207° |
| 2026-04-24 14:46 | 35.50691 | -5.80553 | 23717 ft | 419 kts | 207° |
| 2026-04-24 14:46 | 35.48109 | -5.82252 | 24201 ft | 422 kts | 207° |
| 2026-04-24 14:46 | 35.45547 | -5.83935 | 24686 ft | 425 kts | 207° |
| 2026-04-24 14:47 | 35.43784 | -5.85095 | 24995 ft | 427 kts | 207° |
| 2026-04-24 14:47 | 35.40299 | -5.87388 | 25606 ft | 431 kts | 206° |
| 2026-04-24 14:47 | 35.37648 | -5.89130 | 26034 ft | 434 kts | 206° |
| 2026-04-24 14:47 | 35.34975 | -5.90885 | 26450 ft | 437 kts | 206° |
| 2026-04-24 14:48 | 35.32292 | -5.92643 | 26848 ft | 440 kts | 206° |
| 2026-04-24 14:48 | 35.29583 | -5.94418 | 27240 ft | 442 kts | 206° |
| 2026-04-24 14:48 | 35.26860 | -5.96201 | 27630 ft | 446 kts | 206° |
| 2026-04-24 14:48 | 35.24119 | -5.97995 | 28017 ft | 448 kts | 206° |
| 2026-04-24 14:49 | 35.21364 | -5.99796 | 28377 ft | 450 kts | 206° |
| 2026-04-24 14:49 | 35.18594 | -6.01606 | 28721 ft | 453 kts | 206° |
| 2026-04-24 14:49 | 35.15808 | -6.03426 | 29045 ft | 455 kts | 206° |
| 2026-04-24 14:49 | 35.13002 | -6.05256 | 29377 ft | 458 kts | 206° |
| 2026-04-24 14:50 | 35.10188 | -6.07089 | 29726 ft | 459 kts | 206° |
| 2026-04-24 14:50 | 35.07368 | -6.08926 | 30142 ft | 459 kts | 206° |
| 2026-04-24 14:50 | 35.04556 | -6.10756 | 30566 ft | 458 kts | 206° |
| 2026-04-24 14:50 | 35.01747 | -6.12584 | 30988 ft | 456 kts | 206° |
| 2026-04-24 14:51 | 34.98945 | -6.14405 | 31431 ft | 455 kts | 206° |
| 2026-04-24 14:51 | 34.96156 | -6.16214 | 31851 ft | 453 kts | 206° |
| 2026-04-24 14:51 | 34.93376 | -6.18016 | 32265 ft | 452 kts | 206° |
| 2026-04-24 14:51 | 34.90604 | -6.19812 | 32680 ft | 451 kts | 207° |
| 2026-04-24 14:52 | 34.87838 | -6.21604 | 33092 ft | 449 kts | 207° |
| 2026-04-24 14:52 | 34.85116 | -6.23366 | 33481 ft | 448 kts | 207° |
| 2026-04-24 14:52 | 34.82371 | -6.25141 | 33870 ft | 446 kts | 207° |
| 2026-04-24 14:52 | 34.79621 | -6.26919 | 34270 ft | 445 kts | 207° |
| 2026-04-24 14:53 | 34.76892 | -6.28683 | 34630 ft | 444 kts | 207° |
| 2026-04-24 14:53 | 34.74163 | -6.30441 | 34976 ft | 444 kts | 208° |
| 2026-04-24 14:53 | 34.71436 | -6.32196 | 35321 ft | 444 kts | 208° |
| 2026-04-24 14:53 | 34.68706 | -6.33954 | 35662 ft | 443 kts | 208° |
| 2026-04-24 14:54 | 34.65986 | -6.35707 | 35983 ft | 443 kts | 209° |
| 2026-04-24 14:54 | 34.63266 | -6.37460 | 36316 ft | 442 kts | 209° |
| 2026-04-24 14:54 | 34.60542 | -6.39212 | 36608 ft | 443 kts | 210° |
| 2026-04-24 14:54 | 34.58741 | -6.40369 | 36807 ft | 442 kts | 210° |
| 2026-04-24 14:55 | 34.56013 | -6.42118 | 37068 ft | 443 kts | 210° |
| 2026-04-24 14:55 | 34.49702 | -6.46163 | 37064 ft | 432 kts | 210° |
| 2026-04-24 14:56 | 34.44392 | -6.49566 | 37069 ft | 433 kts | 210° |
| 2026-04-24 14:56 | 34.39052 | -6.52981 | 37071 ft | 434 kts | 210° |
| 2026-04-24 14:57 | 34.34597 | -6.55818 | 37068 ft | 435 kts | 210° |
| 2026-04-24 14:57 | 34.29244 | -6.59234 | 37069 ft | 435 kts | 210° |
| 2026-04-24 14:58 | 34.23886 | -6.62651 | 37067 ft | 433 kts | 210° |
| 2026-04-24 14:58 | 34.18550 | -6.66040 | 37061 ft | 434 kts | 210° |
| 2026-04-24 14:59 | 34.13195 | -6.69437 | 37063 ft | 434 kts | 210° |
| 2026-04-24 14:59 | 34.07854 | -6.72853 | 37061 ft | 434 kts | 214° |
| 2026-04-24 15:00 | 34.03379 | -6.77584 | 37074 ft | 428 kts | 234° |
| 2026-04-24 15:00 | 33.99992 | -6.83496 | 37066 ft | 428 kts | 237° |
| 2026-04-24 15:01 | 33.96684 | -6.89442 | 37015 ft | 425 kts | 238° |
| 2026-04-24 15:01 | 33.95039 | -6.92367 | 36750 ft | 417 kts | 238° |
| 2026-04-24 15:01 | 33.93415 | -6.95235 | 36509 ft | 413 kts | 238° |
| 2026-04-24 15:01 | 33.91813 | -6.98067 | 36265 ft | 414 kts | 238° |
| 2026-04-24 15:02 | 33.90194 | -7.00939 | 36017 ft | 416 kts | 238° |
| 2026-04-24 15:02 | 33.88559 | -7.03840 | 35767 ft | 419 kts | 238° |
| 2026-04-24 15:02 | 33.86914 | -7.06754 | 35518 ft | 423 kts | 238° |
| 2026-04-24 15:02 | 33.85251 | -7.09694 | 35273 ft | 426 kts | 238° |
| 2026-04-24 15:03 | 33.83581 | -7.12640 | 35020 ft | 426 kts | 238° |
| 2026-04-24 15:03 | 33.81912 | -7.15583 | 34695 ft | 427 kts | 238° |
| 2026-04-24 15:03 | 33.80218 | -7.18572 | 33738 ft | 435 kts | 238° |
| 2026-04-24 15:03 | 33.78546 | -7.21516 | 33656 ft | 419 kts | 238° |
| 2026-04-24 15:04 | 33.76900 | -7.24413 | 33512 ft | 423 kts | 238° |
| 2026-04-24 15:04 | 33.75230 | -7.27355 | 33365 ft | 430 kts | 238° |
| 2026-04-24 15:04 | 33.73549 | -7.30315 | 33225 ft | 437 kts | 238° |
| 2026-04-24 15:04 | 33.71825 | -7.33346 | 33100 ft | 442 kts | 238° |
| 2026-04-24 15:05 | 33.70080 | -7.36404 | 33100 ft | 444 kts | 238° |
| 2026-04-24 15:05 | 33.66574 | -7.42542 | 33090 ft | 447 kts | 238° |
| 2026-04-24 15:06 | 33.63056 | -7.48698 | 33089 ft | 447 kts | 238° |
| 2026-04-24 15:06 | 33.59530 | -7.54861 | 33092 ft | 448 kts | 238° |
| 2026-04-24 15:07 | 33.55999 | -7.61014 | 33091 ft | 447 kts | 238° |
| 2026-04-24 15:07 | 33.52402 | -7.67057 | 33091 ft | 450 kts | 232° |
| 2026-04-24 15:08 | 33.47695 | -7.72069 | 33093 ft | 455 kts | 223° |
| 2026-04-24 15:08 | 33.42753 | -7.76807 | 33091 ft | 454 kts | 222° |
| 2026-04-24 15:09 | 33.37825 | -7.81534 | 33090 ft | 454 kts | 223° |
| 2026-04-24 15:09 | 33.32916 | -7.86286 | 33089 ft | 454 kts | 223° |
| 2026-04-24 15:10 | 33.28000 | -7.91008 | 33091 ft | 453 kts | 223° |
| 2026-04-24 15:10 | 33.23095 | -7.95712 | 33088 ft | 452 kts | 223° |
| 2026-04-24 15:11 | 33.18194 | -8.00414 | 33086 ft | 451 kts | 224° |
| 2026-04-24 15:11 | 33.13289 | -8.05100 | 33065 ft | 452 kts | 225° |
| 2026-04-24 15:12 | 33.08404 | -8.09783 | 33062 ft | 454 kts | 225° |
| 2026-04-24 15:12 | 33.01022 | -8.16818 | 33059 ft | 452 kts | 226° |
| 2026-04-24 15:13 | 32.96111 | -8.21496 | 33063 ft | 451 kts | 226° |
| 2026-04-24 15:13 | 32.91211 | -8.26158 | 33062 ft | 451 kts | 226° |
| 2026-04-24 15:14 | 32.86313 | -8.30809 | 33061 ft | 450 kts | 226° |
| 2026-04-24 15:14 | 32.81426 | -8.35439 | 33064 ft | 449 kts | 226° |
| 2026-04-24 15:15 | 32.76541 | -8.40067 | 33064 ft | 448 kts | 226° |
| 2026-04-24 15:15 | 32.71663 | -8.44679 | 33062 ft | 448 kts | 226° |
| 2026-04-24 15:16 | 32.66873 | -8.49324 | 33061 ft | 445 kts | 229° |
| 2026-04-24 15:16 | 32.62386 | -8.54325 | 33059 ft | 441 kts | 231° |
| 2026-04-24 15:17 | 32.57871 | -8.59296 | 33062 ft | 444 kts | 229° |
| 2026-04-24 15:17 | 32.53254 | -8.64173 | 33061 ft | 444 kts | 230° |
| 2026-04-24 15:18 | 32.48691 | -8.69096 | 33064 ft | 443 kts | 230° |
| 2026-04-24 15:18 | 32.44123 | -8.74027 | 33062 ft | 443 kts | 230° |
| 2026-04-24 15:19 | 32.39562 | -8.78904 | 33057 ft | 445 kts | 230° |
| 2026-04-24 15:19 | 32.34963 | -8.83829 | 33052 ft | 445 kts | 230° |
| 2026-04-24 15:20 | 32.30376 | -8.88741 | 33052 ft | 445 kts | 230° |
| 2026-04-24 15:20 | 32.25771 | -8.93662 | 33054 ft | 447 kts | 230° |
| 2026-04-24 15:21 | 32.21184 | -8.98544 | 33058 ft | 446 kts | 230° |
| 2026-04-24 15:21 | 32.16577 | -9.03453 | 33057 ft | 447 kts | 230° |
| 2026-04-24 15:22 | 32.11947 | -9.08384 | 33055 ft | 448 kts | 229° |
| 2026-04-24 15:23 | 32.04984 | -9.15771 | 33059 ft | 449 kts | 230° |
| 2026-04-24 15:23 | 31.98010 | -9.23160 | 33051 ft | 449 kts | 229° |
| 2026-04-24 15:25 | 31.87186 | -9.34593 | 31330 ft | 449 kts | 228° |
| 2026-04-24 15:25 | 31.80305 | -9.37885 | 27915 ft | 480 kts | 190° |
| 2026-04-24 15:26 | 31.70939 | -9.34018 | 23506 ft | 495 kts | 141° |
| 2026-04-24 15:27 | 31.66710 | -9.23517 | 19096 ft | 471 kts | 89° |
| 2026-04-24 15:27 | 31.70094 | -9.13803 | 14662 ft | 413 kts | 37° |
| 2026-04-24 15:28 | 31.79998 | -9.12934 | 8745 ft | 367 kts | 326° |
| 2026-04-24 15:29 | 31.83061 | -9.17555 | 5778 ft | 362 kts | 290° |
| 2026-04-24 15:30 | 31.82391 | -9.25531 | 4077 ft | 294 kts | 241° |
| 2026-04-24 15:31 | 31.78164 | -9.32132 | 4083 ft | 270 kts | 232° |
| 2026-04-24 15:32 | 31.73210 | -9.39535 | 4081 ft | 266 kts | 232° |
| 2026-04-24 15:33 | 31.68626 | -9.46383 | 4106 ft | 266 kts | 232° |
| 2026-04-24 15:33 | 31.65182 | -9.51515 | 4083 ft | 267 kts | 232° |
| 2026-04-24 15:34 | 31.62897 | -9.54921 | 4055 ft | 268 kts | 232° |
| 2026-04-24 15:35 | 31.59174 | -9.60456 | 1983 ft | 299 kts | 232° |
| 2026-04-24 15:35 | 31.56772 | -9.64013 | 1989 ft | 255 kts | 235° |
| 2026-04-24 15:35 | 31.55725 | -9.65565 | 1979 ft | 231 kts | 235° |
| 2026-04-24 15:36 | 31.54755 | -9.67005 | 1991 ft | 215 kts | 235° |
| 2026-04-24 15:36 | 31.52980 | -9.69650 | 2000 ft | 202 kts | 235° |
| 2026-04-24 15:36 | 31.52119 | -9.70927 | 1847 ft | 204 kts | 234° |
| 2026-04-24 15:37 | 31.50988 | -9.71882 | 1668 ft | 201 kts | 199° |
| 2026-04-24 15:37 | 31.49677 | -9.71953 | 1677 ft | 182 kts | 164° |
| 2026-04-24 15:37 | 31.48835 | -9.71697 | 1672 ft | 196 kts | 162° |
| 2026-04-24 15:37 | 31.47089 | -9.71082 | 1427 ft | 193 kts | 161° |
| 2026-04-24 15:38 | 31.45784 | -9.70894 | 1384 ft | 181 kts | 192° |
| 2026-04-24 15:38 | 31.44565 | -9.71328 | 1396 ft | 185 kts | 205° |
| 2026-04-24 15:38 | 31.43411 | -9.71970 | 1401 ft | 185 kts | 210° |
| 2026-04-24 15:38 | 31.42295 | -9.72678 | 1389 ft | 181 kts | 212° |
| 2026-04-24 15:39 | 31.41179 | -9.73391 | 1374 ft | 182 kts | 211° |
| 2026-04-24 15:39 | 31.40084 | -9.74099 | 1388 ft | 184 kts | 211° |
| 2026-04-24 15:39 | 31.38981 | -9.74820 | 1371 ft | 179 kts | 212° |
| 2026-04-24 15:39 | 31.37899 | -9.75527 | 1359 ft | 172 kts | 212° |
| 2026-04-24 15:40 | 31.36777 | -9.76008 | 1250 ft | 172 kts | 184° |
| 2026-04-24 15:40 | 31.35671 | -9.75844 | 1124 ft | 147 kts | 163° |
| 2026-04-24 15:40 | 31.35172 | -9.75698 | 939 ft | 125 kts | 182° |
| 2026-04-24 15:44 | 31.34150 | -9.75963 | 4737 ft | 228 kts | 195° |
| 2026-04-24 15:44 | 31.32503 | -9.76529 | 4370 ft | 234 kts | 191° |
| 2026-04-24 15:45 | 31.31074 | -9.76707 | 4376 ft | 196 kts | 179° |
| 2026-04-24 15:45 | 31.29685 | -9.76402 | 3143 ft | 216 kts | 154° |
| 2026-04-24 15:45 | 31.28665 | -9.75221 | 2298 ft | 205 kts | 115° |
| 2026-04-24 15:45 | 31.28441 | -9.73693 | 1883 ft | 177 kts | 77° |
| 2026-04-24 15:46 | 31.28852 | -9.72491 | 1751 ft | 146 kts | 58° |
| 2026-04-24 15:46 | 31.29438 | -9.71506 | 1525 ft | 156 kts | 54° |
| 2026-04-24 15:46 | 31.30043 | -9.70433 | 1427 ft | 158 kts | 56° |
| 2026-04-24 15:46 | 31.30639 | -9.69380 | 1380 ft | 156 kts | 54° |
| 2026-04-24 15:47 | 31.31288 | -9.68382 | 1334 ft | 154 kts | 49° |
| 2026-04-24 15:47 | 31.31988 | -9.67466 | 1352 ft | 145 kts | 41° |
| 2026-04-24 15:47 | 31.32793 | -9.66831 | 1336 ft | 141 kts | 31° |
| 2026-04-24 15:47 | 31.33630 | -9.66273 | 1346 ft | 134 kts | 28° |
| 2026-04-24 15:48 | 31.34495 | -9.65951 | 1319 ft | 129 kts | 5° |
| 2026-04-24 15:48 | 31.35340 | -9.66137 | 1267 ft | 125 kts | 340° |
| 2026-04-24 15:48 | 31.36200 | -9.66581 | 1095 ft | 147 kts | 337° |
| 2026-04-24 15:48 | 31.37154 | -9.67051 | 851 ft | 145 kts | 339° |
| 2026-04-24 15:49 | 31.38074 | -9.67474 | 617 ft | 142 kts | 340° |
| 2026-04-24 15:49 | 31.38994 | -9.67885 | 413 ft | 136 kts | 341° |
| 2026-04-24 15:49 | 31.39736 | -9.68214 | 394 ft | 91 kts | 339° |
| 2026-04-24 15:49 | 31.40183 | -9.68417 | 392 ft | 48 kts | 338° |
| 2026-04-24 15:50 | 31.40464 | -9.68546 | 393 ft | 34 kts | 339° |
| 2026-04-24 15:50 | 31.40559 | -9.68643 | 392 ft | 13 kts | 258° |
| 2026-04-24 15:50 | 31.40509 | -9.68739 | 393 ft | 15 kts | 196° |
| 2026-04-24 15:50 | 31.40413 | -9.68711 | 392 ft | 12 kts | 159° |
| 2026-04-24 15:51 | 31.40337 | -9.68718 | 392 ft | 11 kts | 236° |
| 2026-04-24 15:51 | 31.40329 | -9.68742 | 392 ft | 0 kts | 252° |